Ana Sayfa
METAR-TAF:

METAR-TAF

Havaalanları :

Beyrut, Lübnan

Enlem: 33-49N, Boylam: 035-29E, yükseklik: 29 m

METAR: eksik

Saat: 15:49 (13:49 UTC)

Tahmin

Rapor saat 10:00 UTC de 3 saat ve 49 dakika önce yapıldı.
Ayın 23'si saat 12 UTC'den ayın 24'si saat 18 UTC'ye kadar geçerli Tahmin
Rüzgar değişken yönden 3 kt
Görüş mesafesi: 8000 m
Dönüşüyor
ayın 23'si saat 15 UTC'den ayın 23'si saat 18 UTC'ye kadar
Görüş mesafesi 10 km veya daha fazla
1500 m altında bulut yok ve kümülonimbus yok
Dönüşüyor
ayın 24'si saat 06 UTC'den ayın 24'si saat 09 UTC'ye kadar
Görüş mesafesi: 8000 m

TAF: OLBA 231000Z 2312/2418 VRB03KT 8000 NSC BECMG 2315/2318 CAVOK BECMG 2406/2409 8000 NSC

4.000'den fazla havaalanı için hava durumu gözlemleri ve tahminleri (METAR ve TAF raporları).

Kullanılabilir istasyonlar harita üzerinde sarı ve kırmızı noktalarla gösterilir.

İstasyonun adını görmek için fareyi noktanın üzerinde gezdirin.

Sonrasında hava gözlem ve tahminlerini görmek için tıklayın.

Haritayı değiştirmek için: yaklaştırmak için siyah artı işaretli yeşil düğmeye ve uzaklaştırmak için de eksi işaretli düğmeye hızla tıklayın; bitişik haritalar için yeşil okları kullanın.


METAR-TAF: